createdAt,value
2022-09-13T00:01:42.000Z,3.60
2022-09-13T00:04:09.525Z,5.20
2022-09-13T00:06:36.852Z,4.67
2022-09-13T00:09:04.244Z,4.30
2022-09-13T00:11:32.273Z,3.90
2022-09-13T00:13:59.613Z,4.37
2022-09-13T00:16:28.123Z,5.77
2022-09-13T00:18:57.231Z,5.60
2022-09-13T00:21:24.587Z,4.20
2022-09-13T00:23:53.217Z,4.67
2022-09-13T00:26:21.647Z,5.90
2022-09-13T00:28:51.516Z,5.07
2022-09-13T00:31:19.046Z,4.73
2022-09-13T00:33:46.950Z,5.17
2022-09-13T00:36:16.303Z,3.80
2022-09-13T00:38:43.907Z,3.20
2022-09-13T00:41:13.788Z,4.30
2022-09-13T00:43:43.023Z,3.97
2022-09-13T00:46:10.887Z,9.33
2022-09-13T00:48:38.565Z,4.57
2022-09-13T00:51:07.300Z,5.57
2022-09-13T00:53:37.957Z,4.33
2022-09-13T00:56:09.536Z,3.57
2022-09-13T00:58:40.240Z,4.90
2022-09-13T01:01:10.122Z,4.50
2022-09-13T01:03:37.664Z,4.87
2022-09-13T01:06:07.522Z,4.97
2022-09-13T01:08:38.163Z,5.10
2022-09-13T01:11:07.642Z,5.77
2022-09-13T01:13:35.509Z,4.20
2022-09-13T01:16:03.342Z,6.33
2022-09-13T01:18:30.717Z,6.13
2022-09-13T01:21:31.132Z,4.10
2022-09-13T01:24:10.917Z,4.67
2022-09-13T01:26:55.221Z,4.87
2022-09-13T01:29:32.789Z,5.27
2022-09-13T01:32:06.636Z,7.33
2022-09-13T01:34:38.700Z,6.37
2022-09-13T01:37:23.962Z,4.47
2022-09-13T01:39:59.877Z,4.47
2022-09-13T01:42:32.643Z,5.93
2022-09-13T01:45:05.490Z,5.17
2022-09-13T01:47:34.865Z,5.47
2022-09-13T01:50:08.360Z,7.57
2022-09-13T01:52:42.621Z,8.47
2022-09-13T01:55:14.382Z,4.63
2022-09-13T01:57:44.258Z,4.87
2022-09-13T02:00:13.360Z,7.33
2022-09-13T02:02:44.521Z,4.17
2022-09-13T02:05:14.464Z,4.90
2022-09-13T02:07:42.979Z,3.90
2022-09-13T02:10:12.851Z,5.13
2022-09-13T02:12:43.448Z,4.53
2022-09-13T02:15:13.648Z,5.17
2022-09-13T02:17:44.804Z,5.40
2022-09-13T02:20:13.996Z,5.43
2022-09-13T02:22:44.817Z,4.40
2022-09-13T02:25:14.597Z,5.33
2022-09-13T02:27:44.965Z,5.17
2022-09-13T02:30:14.291Z,3.93
2022-09-13T02:32:44.664Z,4.07
2022-09-13T02:35:15.330Z,5.50
2022-09-13T02:37:44.586Z,4.97
2022-09-13T02:40:17.241Z,5.77
2022-09-13T02:42:47.194Z,6.20
2022-09-13T02:45:15.114Z,5.70
2022-09-13T02:47:46.308Z,5.03
2022-09-13T02:50:25.803Z,4.97
2022-09-13T02:52:57.354Z,7.23
2022-09-13T02:55:28.563Z,5.80
2022-09-13T02:58:00.643Z,6.03
2022-09-13T03:00:28.967Z,5.27
2022-09-13T03:02:57.877Z,4.10
2022-09-13T03:05:25.322Z,8.73
2022-09-13T03:07:53.549Z,4.93
2022-09-13T03:10:20.940Z,4.33
2022-09-13T03:12:56.584Z,3.87
2022-09-13T03:15:30.346Z,6.10
2022-09-13T03:18:06.717Z,5.07
2022-09-13T03:20:39.019Z,4.13
2022-09-13T03:23:24.229Z,4.80
2022-09-13T03:26:02.623Z,4.87
2022-09-13T03:28:35.281Z,5.37
2022-09-13T03:31:04.863Z,3.70
2022-09-13T03:33:38.919Z,5.00
2022-09-13T03:36:11.092Z,5.97
2022-09-13T03:38:40.592Z,4.40
2022-09-13T03:41:10.374Z,3.37
2022-09-13T03:43:39.760Z,5.67
2022-09-13T03:46:09.599Z,5.30
2022-09-13T03:48:40.185Z,4.17
2022-09-13T03:51:07.797Z,4.87
2022-09-13T03:53:37.040Z,4.07
2022-09-13T03:56:12.810Z,8.00
2022-09-13T03:58:40.138Z,4.37
2022-09-13T04:01:07.666Z,5.10
2022-09-13T04:03:35.052Z,3.70
2022-09-13T04:06:03.818Z,5.30
2022-09-13T04:08:31.194Z,4.40
2022-09-13T04:10:58.593Z,5.67
2022-09-13T04:13:26.889Z,5.93
2022-09-13T04:15:54.267Z,3.90
2022-09-13T04:18:21.600Z,4.50
2022-09-13T04:20:54.857Z,6.67
2022-09-13T04:23:23.764Z,5.77
2022-09-13T04:25:51.713Z,4.27
2022-09-13T04:28:19.481Z,4.40
2022-09-13T04:30:47.354Z,5.93
2022-09-13T04:33:14.703Z,5.03
2022-09-13T04:35:42.032Z,5.43
2022-09-13T04:38:09.770Z,4.63
2022-09-13T04:40:39.099Z,5.03
2022-09-13T04:43:06.466Z,7.40
2022-09-13T04:45:33.896Z,4.83
2022-09-13T04:48:01.339Z,5.17
2022-09-13T04:50:28.711Z,9.20
2022-09-13T04:52:56.264Z,4.50
2022-09-13T04:55:26.012Z,5.70
2022-09-13T04:57:56.479Z,5.13
2022-09-13T05:00:25.538Z,5.97
2022-09-13T05:02:55.782Z,5.47
2022-09-13T05:05:23.159Z,7.50
2022-09-13T05:07:50.833Z,6.33
2022-09-13T05:10:19.637Z,5.63
2022-09-13T05:12:47.149Z,6.43
2022-09-13T05:15:16.043Z,5.30
2022-09-13T05:17:43.407Z,6.53
2022-09-13T05:20:11.628Z,8.53
2022-09-13T05:22:39.103Z,6.87
2022-09-13T05:25:07.097Z,5.90
2022-09-13T05:27:34.453Z,5.87
2022-09-13T05:30:01.880Z,6.50
2022-09-13T05:32:31.455Z,7.80
2022-09-13T05:34:58.879Z,5.60
2022-09-13T05:37:26.214Z,8.33
2022-09-13T05:40:10.574Z,9.93
2022-09-13T05:42:39.201Z,6.33
2022-09-13T05:45:07.393Z,6.50
2022-09-13T05:47:36.073Z,6.93
2022-09-13T05:50:18.463Z,6.37
2022-09-13T05:52:52.881Z,7.17
2022-09-13T05:55:21.251Z,7.90
2022-09-13T05:57:48.881Z,6.57
2022-09-13T06:00:17.580Z,5.53
2022-09-13T06:02:46.430Z,6.90
2022-09-13T06:05:14.573Z,7.83
2022-09-13T06:07:42.372Z,8.17
2022-09-13T06:10:10.417Z,6.23
2022-09-13T06:12:38.173Z,6.17
2022-09-13T06:15:05.800Z,7.23
2022-09-13T06:17:33.150Z,7.47
2022-09-13T06:20:01.865Z,6.27
2022-09-13T06:22:33.133Z,5.73
2022-09-13T06:25:00.509Z,6.23
2022-09-13T06:27:27.993Z,6.57
2022-09-13T06:29:55.410Z,6.67
2022-09-13T06:32:22.892Z,5.27
2022-09-13T06:34:50.283Z,5.07
2022-09-13T06:37:18.944Z,4.33
2022-09-13T06:39:46.634Z,4.63
2022-09-13T06:42:14.323Z,5.97
2022-09-13T06:44:41.712Z,5.27
2022-09-13T06:47:09.043Z,6.30
2022-09-13T06:49:36.505Z,5.67
2022-09-13T06:52:04.118Z,4.33
2022-09-13T06:54:33.076Z,5.27
2022-09-13T06:57:02.954Z,4.90
2022-09-13T06:59:30.345Z,5.87
2022-09-13T07:01:58.070Z,4.23
2022-09-13T07:04:25.679Z,5.30
2022-09-13T07:06:53.196Z,7.33
2022-09-13T07:09:22.159Z,3.37
2022-09-13T07:11:51.894Z,4.90
2022-09-13T07:14:20.547Z,4.00
2022-09-13T07:16:48.365Z,3.57
2022-09-13T07:19:16.574Z,4.30
2022-09-13T07:21:44.295Z,3.20
2022-09-13T07:24:11.748Z,4.57
2022-09-13T07:26:39.780Z,3.20
2022-09-13T07:29:09.814Z,4.10
2022-09-13T07:31:38.246Z,3.97
2022-09-13T07:34:06.544Z,3.20
2022-09-13T07:36:34.880Z,5.67
2022-09-13T07:39:02.834Z,4.77
2022-09-13T07:41:30.859Z,3.20
2022-09-13T07:43:58.553Z,4.73
2022-09-13T07:46:28.061Z,4.33
2022-09-13T07:48:56.244Z,4.20
2022-09-13T07:51:24.447Z,3.70
2022-09-13T07:53:57.080Z,5.60
2022-09-13T07:56:25.875Z,4.00
2022-09-13T07:58:54.912Z,3.63
2022-09-13T08:01:23.359Z,3.50
2022-09-13T08:03:55.605Z,6.13
2022-09-13T08:06:23.505Z,5.23
2022-09-13T08:08:51.236Z,3.57
2022-09-13T08:11:20.744Z,3.20
2022-09-13T08:13:48.727Z,3.60
2022-09-13T08:16:17.948Z,5.23
2022-09-13T08:18:46.140Z,4.27
2022-09-13T08:21:15.493Z,3.57
2022-09-13T08:23:43.073Z,4.20
2022-09-13T08:26:11.029Z,5.47
2022-09-13T08:28:40.107Z,3.50
2022-09-13T08:31:08.246Z,5.90
2022-09-13T08:33:36.449Z,4.93
2022-09-13T08:36:04.811Z,4.53
2022-09-13T08:38:33.537Z,4.53
2022-09-13T08:41:02.598Z,3.73
2022-09-13T08:43:38.900Z,3.47
2022-09-13T08:46:10.294Z,3.83
2022-09-13T08:48:40.340Z,6.20
2022-09-13T08:51:08.739Z,3.97
2022-09-13T08:53:41.834Z,7.20
2022-09-13T08:56:10.583Z,3.60
2022-09-13T08:58:44.137Z,4.07
2022-09-13T09:01:20.911Z,3.70
2022-09-13T09:03:54.599Z,4.83
2022-09-13T09:06:22.690Z,5.97
2022-09-13T09:08:53.268Z,5.50
2022-09-13T09:11:23.654Z,3.43
2022-09-13T09:13:54.091Z,3.20
2022-09-13T09:16:28.009Z,3.93
2022-09-13T09:18:56.594Z,4.70
2022-09-13T09:21:24.107Z,4.67
2022-09-13T09:23:53.665Z,3.30
2022-09-13T09:26:22.003Z,4.57
2022-09-13T09:28:51.165Z,3.93
2022-09-13T09:31:25.919Z,3.50
2022-09-13T09:33:59.812Z,3.80
2022-09-13T09:36:33.065Z,3.73
2022-09-13T09:39:01.729Z,4.13
2022-09-13T09:41:31.520Z,3.27
2022-09-13T09:44:02.643Z,4.50
2022-09-13T09:46:31.831Z,4.73
2022-09-13T09:49:04.202Z,6.40
2022-09-13T09:51:32.494Z,5.33
2022-09-13T09:54:05.115Z,3.20
2022-09-13T09:56:33.682Z,3.70
2022-09-13T09:59:02.496Z,4.70
2022-09-13T10:01:32.252Z,4.30
2022-09-13T10:04:03.884Z,3.53
2022-09-13T10:06:31.917Z,4.73
2022-09-13T10:09:01.072Z,3.07
2022-09-13T10:11:46.102Z,6.57
2022-09-13T10:14:36.357Z,3.00
2022-09-13T10:17:14.870Z,2.67
2022-09-13T10:19:42.816Z,2.97
2022-09-13T10:22:12.018Z,3.73
2022-09-13T10:24:39.457Z,3.23
2022-09-13T10:27:20.268Z,3.10
2022-09-13T10:29:50.027Z,5.40
2022-09-13T10:32:19.716Z,3.00
2022-09-13T10:34:49.362Z,9.83
2022-09-13T10:37:19.305Z,2.30
2022-09-13T10:39:53.872Z,2.10
2022-09-13T10:42:23.585Z,2.30
2022-09-13T10:44:55.433Z,2.60
2022-09-13T10:47:23.907Z,2.40
2022-09-13T10:49:52.805Z,2.70
2022-09-13T10:52:27.863Z,2.20
2022-09-13T10:54:55.539Z,3.00
2022-09-13T10:57:34.446Z,5.17
2022-09-13T11:00:03.659Z,4.13
2022-09-13T11:02:49.818Z,3.83
2022-09-13T11:05:22.181Z,6.10
2022-09-13T11:07:57.238Z,2.17
2022-09-13T11:10:28.401Z,3.93
2022-09-13T11:13:00.285Z,2.40
2022-09-13T11:15:34.478Z,2.83
2022-09-13T11:18:13.367Z,2.10
2022-09-13T11:20:46.295Z,2.00
2022-09-13T11:23:22.444Z,4.20
2022-09-13T11:25:54.985Z,2.43
2022-09-13T11:28:26.379Z,4.03
2022-09-13T11:31:03.021Z,5.40
2022-09-13T11:33:37.175Z,3.63
2022-09-13T11:36:16.252Z,2.07
2022-09-13T11:38:47.558Z,2.20
2022-09-13T11:41:20.505Z,3.63
2022-09-13T11:43:57.327Z,2.00
2022-09-13T11:46:30.497Z,2.97
2022-09-13T11:49:12.831Z,2.73
2022-09-13T11:51:48.934Z,5.20
2022-09-13T11:54:21.059Z,2.13
2022-09-13T11:56:50.588Z,3.23
2022-09-13T11:59:22.033Z,2.37
2022-09-13T12:01:52.902Z,2.57
2022-09-13T12:04:25.429Z,3.17
2022-09-13T12:06:54.937Z,2.07
2022-09-13T12:09:24.405Z,3.97
2022-09-13T12:11:54.115Z,3.87
2022-09-13T12:14:23.504Z,1.27
2022-09-13T12:16:54.442Z,1.80
2022-09-13T12:19:23.544Z,1.53
2022-09-13T12:21:52.384Z,1.63
2022-09-13T12:24:22.016Z,1.97
2022-09-13T12:26:53.940Z,2.90
2022-09-13T12:29:23.129Z,2.30
2022-09-13T12:31:52.283Z,2.57
2022-09-13T12:34:23.714Z,3.67
2022-09-13T12:37:03.453Z,1.50
2022-09-13T12:39:38.736Z,1.80
2022-09-13T12:42:20.172Z,1.27
2022-09-13T12:45:05.663Z,1.13
2022-09-13T12:47:42.268Z,3.07
2022-09-13T12:53:10.491Z,2.43
2022-09-13T12:55:47.560Z,2.80
2022-09-13T12:58:28.634Z,3.50
2022-09-13T13:01:06.564Z,1.50
2022-09-13T13:03:36.928Z,1.23
2022-09-13T13:06:09.973Z,1.23
2022-09-13T13:08:37.425Z,1.70
2022-09-13T13:11:06.225Z,1.37
2022-09-13T13:13:35.563Z,3.77
2022-09-13T13:16:09.074Z,1.40
2022-09-13T13:18:48.484Z,4.73
2022-09-13T13:21:33.550Z,0.80
2022-09-13T13:24:19.645Z,2.13
2022-09-13T13:26:48.647Z,3.40
2022-09-13T13:29:18.181Z,1.93
2022-09-13T13:32:03.275Z,4.83
2022-09-13T13:34:37.806Z,2.60
2022-09-13T13:37:05.917Z,1.50
2022-09-13T13:39:34.987Z,1.67
2022-09-13T13:42:03.309Z,2.40
2022-09-13T13:44:49.588Z,1.30
2022-09-13T13:47:47.049Z,1.77
2022-09-13T13:50:18.037Z,1.97
2022-09-13T13:52:56.802Z,1.47
2022-09-13T13:55:41.277Z,2.70
2022-09-13T13:58:16.202Z,1.57
2022-09-13T14:00:48.160Z,2.93
2022-09-13T14:03:20.191Z,1.40
2022-09-13T14:05:52.046Z,1.30
2022-09-13T14:08:31.544Z,2.07
2022-09-13T14:11:01.246Z,2.13
2022-09-13T14:13:41.806Z,3.23
2022-09-13T14:16:11.069Z,1.20
2022-09-13T14:18:53.417Z,1.33
2022-09-13T14:21:26.626Z,1.30
2022-09-13T14:24:09.182Z,3.20
2022-09-13T14:26:36.919Z,2.50
2022-09-13T14:29:07.553Z,2.80
2022-09-13T14:31:35.543Z,2.53
2022-09-13T14:34:02.927Z,2.20
2022-09-13T14:36:31.642Z,4.70
2022-09-13T14:38:59.980Z,1.40
2022-09-13T14:41:31.748Z,2.37
2022-09-13T14:44:18.865Z,2.00
2022-09-13T14:46:52.819Z,2.33
2022-09-13T14:49:24.004Z,1.47
2022-09-13T14:51:55.735Z,2.77
2022-09-13T14:54:29.569Z,1.87
2022-09-13T14:56:59.211Z,2.40
2022-09-13T14:59:27.796Z,3.00
2022-09-13T15:01:58.532Z,1.90
2022-09-13T15:04:28.421Z,1.63
2022-09-13T15:07:10.324Z,3.40
2022-09-13T15:09:38.647Z,1.47
2022-09-13T15:12:06.213Z,1.40
2022-09-13T15:14:37.228Z,2.87
2022-09-13T15:17:08.935Z,1.80
2022-09-13T15:19:37.896Z,2.23
2022-09-13T15:22:06.205Z,3.13
2022-09-13T15:24:35.195Z,2.00
2022-09-13T15:27:03.594Z,1.50
2022-09-13T15:29:34.637Z,4.67
2022-09-13T15:32:02.477Z,2.50
2022-09-13T15:34:29.925Z,1.83
2022-09-13T15:37:09.097Z,1.80
2022-09-13T15:39:48.590Z,1.90
2022-09-13T15:42:16.411Z,1.37
2022-09-13T15:44:43.993Z,1.43
2022-09-13T15:47:12.717Z,1.60
2022-09-13T15:49:41.082Z,1.57
2022-09-13T15:52:08.592Z,2.47
2022-09-13T15:54:37.291Z,2.23
2022-09-13T15:57:09.321Z,1.30
2022-09-13T15:59:37.005Z,1.40
2022-09-13T16:02:16.312Z,1.83
2022-09-13T16:04:43.676Z,1.70
2022-09-13T16:07:11.274Z,1.50
2022-09-13T16:09:39.352Z,2.80
2022-09-13T16:12:08.198Z,1.20
2022-09-13T16:14:35.569Z,1.37
2022-09-13T16:17:04.433Z,1.70
2022-09-13T16:19:31.766Z,1.53
2022-09-13T16:21:59.095Z,1.20
2022-09-13T16:24:26.622Z,0.90
2022-09-13T16:26:53.944Z,1.13
2022-09-13T16:29:22.644Z,2.10
2022-09-13T16:31:50.065Z,1.70
2022-09-13T16:34:17.431Z,2.73
2022-09-13T16:36:44.859Z,1.83
2022-09-13T16:39:12.209Z,1.60
2022-09-13T16:41:40.110Z,1.83
2022-09-13T16:44:08.253Z,3.37
2022-09-13T16:46:37.133Z,2.70
2022-09-13T16:49:04.856Z,2.83
2022-09-13T16:51:32.207Z,2.13
2022-09-13T16:54:00.275Z,2.37
2022-09-13T16:56:30.117Z,2.43
2022-09-13T16:58:57.997Z,2.87
2022-09-13T17:01:26.612Z,3.20
2022-09-13T17:03:55.677Z,2.30
2022-09-13T17:06:24.249Z,1.70
2022-09-13T17:08:52.986Z,2.27
2022-09-13T17:11:21.362Z,1.93
2022-09-13T17:13:48.969Z,2.33
2022-09-13T17:16:21.800Z,2.50
2022-09-13T17:18:49.392Z,1.67
2022-09-13T17:21:18.212Z,2.37
2022-09-13T17:23:45.966Z,3.00
2022-09-13T17:26:13.324Z,4.47
2022-09-13T17:28:40.657Z,3.00
2022-09-13T17:31:08.419Z,2.37
2022-09-13T17:33:35.842Z,2.27
2022-09-13T17:36:04.291Z,30.43
2022-09-13T17:38:33.030Z,69.60
2022-09-13T17:41:00.963Z,45.60
2022-09-13T17:43:28.381Z,28.60
2022-09-13T17:45:55.721Z,15.67
2022-09-13T17:48:23.046Z,5.47
2022-09-13T17:50:50.418Z,3.50
2022-09-13T17:53:17.744Z,2.27
2022-09-13T17:55:50.335Z,2.87
2022-09-13T17:58:17.981Z,4.87
2022-09-13T18:00:45.669Z,2.73
2022-09-13T18:03:13.173Z,2.83
2022-09-13T18:05:40.640Z,1.70
2022-09-13T18:08:08.035Z,2.20
2022-09-13T18:11:11.827Z,2.90
2022-09-13T18:13:24.188Z,5.70
2022-09-13T18:15:58.618Z,4.23
2022-09-13T18:18:26.173Z,3.47
2022-09-13T18:20:53.630Z,2.47
2022-09-13T18:23:21.469Z,12.60
2022-09-13T18:26:01.710Z,13.70
2022-09-13T18:28:31.765Z,13.63
2022-09-13T18:31:00.182Z,9.10
2022-09-13T18:33:27.996Z,6.80
2022-09-13T18:36:02.053Z,3.43
2022-09-13T18:38:30.469Z,4.40
2022-09-13T18:41:02.257Z,2.77
2022-09-13T18:43:31.317Z,3.47
2022-09-13T18:45:59.421Z,3.07
2022-09-13T18:48:29.392Z,2.20
2022-09-13T18:50:56.926Z,2.67
2022-09-13T18:53:34.173Z,2.80
2022-09-13T18:56:02.803Z,3.30
2022-09-13T18:58:32.150Z,3.20
2022-09-13T19:01:03.215Z,3.70
2022-09-13T19:03:31.868Z,4.20
2022-09-13T19:06:09.096Z,2.67
2022-09-13T19:08:36.453Z,2.80
2022-09-13T19:11:03.821Z,3.93
2022-09-13T19:13:32.817Z,3.77
2022-09-13T19:16:00.749Z,4.27
2022-09-13T19:18:28.249Z,3.53
2022-09-13T19:21:01.656Z,7.33
2022-09-13T19:23:48.909Z,3.50
2022-09-13T19:26:17.406Z,3.20
2022-09-13T19:28:47.422Z,4.30
2022-09-13T19:31:15.293Z,5.73
2022-09-13T19:33:44.177Z,2.97
2022-09-13T19:36:12.478Z,3.53
2022-09-13T19:38:39.894Z,3.87
2022-09-13T19:41:08.167Z,3.10
2022-09-13T19:43:36.992Z,3.30
2022-09-13T19:46:06.908Z,2.93
2022-09-13T19:48:39.445Z,5.23
2022-09-13T19:51:07.925Z,2.47
2022-09-13T19:53:56.066Z,2.43
2022-09-13T19:56:25.183Z,4.20
2022-09-13T19:58:52.652Z,3.47
2022-09-13T20:01:22.401Z,2.50
2022-09-13T20:03:53.739Z,3.80
2022-09-13T20:06:22.239Z,5.60
2022-09-13T20:08:49.692Z,2.83
2022-09-13T20:11:17.533Z,3.07
2022-09-13T20:13:45.373Z,2.60
2022-09-13T20:16:13.520Z,2.40
2022-09-13T20:18:42.513Z,3.57
2022-09-13T20:21:11.000Z,3.70
2022-09-13T20:23:39.330Z,3.47
2022-09-13T20:26:14.336Z,3.33
2022-09-13T20:28:41.862Z,3.23
2022-09-13T20:31:09.786Z,3.10
2022-09-13T20:33:39.405Z,3.77
2022-09-13T20:36:09.468Z,2.70
2022-09-13T20:38:36.950Z,3.90
2022-09-13T20:41:05.031Z,3.50
2022-09-13T20:43:32.601Z,3.03
2022-09-13T20:46:02.407Z,3.80
2022-09-13T20:48:30.132Z,6.50
2022-09-13T20:50:58.400Z,3.10
2022-09-13T20:53:27.061Z,5.53
2022-09-13T20:55:54.737Z,5.20
2022-09-13T20:58:22.684Z,4.00
2022-09-13T21:00:50.329Z,4.63
2022-09-13T21:03:17.675Z,4.43
2022-09-13T21:05:45.145Z,3.20
2022-09-13T21:08:32.811Z,3.40
2022-09-13T21:11:03.290Z,3.03
2022-09-13T21:13:30.765Z,2.87
2022-09-13T21:16:02.603Z,2.50
2022-09-13T21:18:30.180Z,3.57
2022-09-13T21:20:57.800Z,2.87
2022-09-13T21:23:25.529Z,4.40
2022-09-13T21:25:52.893Z,3.07
2022-09-13T21:28:21.569Z,2.40
2022-09-13T21:30:58.564Z,3.40
2022-09-13T21:33:26.336Z,3.43
2022-09-13T21:35:56.865Z,5.23
2022-09-13T21:38:25.136Z,4.43
2022-09-13T21:40:55.870Z,2.20
2022-09-13T21:43:26.307Z,3.23
2022-09-13T21:46:00.526Z,3.33
2022-09-13T21:48:29.440Z,4.30
2022-09-13T21:51:02.266Z,3.57
2022-09-13T21:53:31.757Z,3.40
2022-09-13T21:56:00.337Z,3.50
2022-09-13T21:58:29.004Z,3.73
2022-09-13T22:00:56.444Z,3.07
2022-09-13T22:03:24.032Z,3.53
2022-09-13T22:05:55.855Z,5.97
2022-09-13T22:08:23.241Z,3.37
2022-09-13T22:10:50.649Z,5.93
2022-09-13T22:13:17.980Z,2.87
2022-09-13T22:15:46.682Z,3.27
2022-09-13T22:18:14.040Z,5.63
2022-09-13T22:20:41.713Z,3.87
2022-09-13T22:23:09.053Z,6.63
2022-09-13T22:25:36.594Z,3.23
2022-09-13T22:28:03.969Z,3.80
2022-09-13T22:30:31.357Z,3.57
2022-09-13T22:33:00.055Z,6.13
2022-09-13T22:35:27.497Z,3.33
2022-09-13T22:37:54.841Z,5.13
2022-09-13T22:40:22.314Z,7.90
2022-09-13T22:42:49.702Z,3.97
2022-09-13T22:45:17.146Z,4.60
2022-09-13T22:47:44.482Z,4.03
2022-09-13T22:50:13.461Z,2.87
2022-09-13T22:52:40.834Z,4.23
2022-09-13T22:55:08.615Z,5.07
2022-09-13T22:57:35.967Z,3.17
2022-09-13T23:00:04.043Z,4.40
2022-09-13T23:02:31.602Z,3.10
2022-09-13T23:04:58.938Z,6.20
2022-09-13T23:07:27.809Z,3.17
2022-09-13T23:09:55.148Z,4.07
2022-09-13T23:12:22.489Z,4.30
2022-09-13T23:14:49.821Z,4.83
2022-09-13T23:17:17.498Z,3.93
2022-09-13T23:19:44.832Z,2.50
2022-09-13T23:22:12.168Z,3.40
2022-09-13T23:24:40.915Z,4.47
2022-09-13T23:27:08.359Z,3.70
2022-09-13T23:29:35.725Z,4.50
2022-09-13T23:32:03.464Z,4.23
2022-09-13T23:34:31.048Z,3.77
2022-09-13T23:36:58.397Z,5.17
2022-09-13T23:39:29.015Z,7.57
2022-09-13T23:41:57.906Z,3.63
2022-09-13T23:44:25.423Z,5.67
2022-09-13T23:46:52.829Z,4.63
2022-09-13T23:49:20.185Z,4.67
2022-09-13T23:51:48.824Z,6.17
2022-09-13T23:54:16.356Z,4.47
2022-09-13T23:56:43.747Z,3.30
2022-09-13T23:59:13.012Z,3.60
